sensor_id;sensor_type;location;lat;lon;timestamp;P1;durP1;ratioP1;P2;durP2;ratioP2
21601;SDS011;10963;50.934;4.668;2023-02-04T00:01:48;46.53;;;22.53;;
21601;SDS011;10963;50.934;4.668;2023-02-04T00:04:16;44.07;;;22.73;;
21601;SDS011;10963;50.934;4.668;2023-02-04T00:06:42;41.97;;;20.67;;
21601;SDS011;10963;50.934;4.668;2023-02-04T00:09:07;43.27;;;21.80;;
21601;SDS011;10963;50.934;4.668;2023-02-04T00:11:33;43.70;;;22.13;;
21601;SDS011;10963;50.934;4.668;2023-02-04T00:14:01;38.77;;;21.57;;
21601;SDS011;10963;50.934;4.668;2023-02-04T00:16:27;40.93;;;21.17;;
21601;SDS011;10963;50.934;4.668;2023-02-04T00:18:53;42.17;;;20.87;;
21601;SDS011;10963;50.934;4.668;2023-02-04T00:21:20;36.30;;;20.17;;
21601;SDS011;10963;50.934;4.668;2023-02-04T00:23:49;36.83;;;20.17;;
21601;SDS011;10963;50.934;4.668;2023-02-04T00:26:15;41.23;;;21.17;;
21601;SDS011;10963;50.934;4.668;2023-02-04T00:28:41;39.30;;;21.37;;
21601;SDS011;10963;50.934;4.668;2023-02-04T00:31:09;36.43;;;20.67;;
21601;SDS011;10963;50.934;4.668;2023-02-04T00:33:34;39.17;;;21.87;;
21601;SDS011;10963;50.934;4.668;2023-02-04T00:36:03;45.20;;;22.33;;
21601;SDS011;10963;50.934;4.668;2023-02-04T00:38:31;40.70;;;22.20;;
21601;SDS011;10963;50.934;4.668;2023-02-04T00:40:56;33.93;;;20.43;;
21601;SDS011;10963;50.934;4.668;2023-02-04T00:43:22;43.40;;;21.67;;
21601;SDS011;10963;50.934;4.668;2023-02-04T00:45:52;40.83;;;21.27;;
21601;SDS011;10963;50.934;4.668;2023-02-04T00:48:20;44.77;;;21.87;;
21601;SDS011;10963;50.934;4.668;2023-02-04T00:50:48;33.27;;;20.10;;
21601;SDS011;10963;50.934;4.668;2023-02-04T00:53:14;35.73;;;20.47;;
21601;SDS011;10963;50.934;4.668;2023-02-04T00:55:42;41.90;;;21.40;;
21601;SDS011;10963;50.934;4.668;2023-02-04T00:58:13;40.87;;;21.50;;
21601;SDS011;10963;50.934;4.668;2023-02-04T01:00:39;45.27;;;21.03;;
21601;SDS011;10963;50.934;4.668;2023-02-04T01:03:04;38.40;;;21.30;;
21601;SDS011;10963;50.934;4.668;2023-02-04T01:05:30;40.10;;;21.57;;
21601;SDS011;10963;50.934;4.668;2023-02-04T01:07:56;43.93;;;22.03;;
21601;SDS011;10963;50.934;4.668;2023-02-04T01:10:21;44.90;;;23.20;;
21601;SDS011;10963;50.934;4.668;2023-02-04T01:12:47;43.50;;;21.40;;
21601;SDS011;10963;50.934;4.668;2023-02-04T01:15:15;38.23;;;22.27;;
21601;SDS011;10963;50.934;4.668;2023-02-04T01:17:41;43.43;;;22.23;;
21601;SDS011;10963;50.934;4.668;2023-02-04T01:20:07;44.63;;;22.50;;
21601;SDS011;10963;50.934;4.668;2023-02-04T01:22:36;39.63;;;21.60;;
21601;SDS011;10963;50.934;4.668;2023-02-04T01:25:04;43.90;;;21.87;;
21601;SDS011;10963;50.934;4.668;2023-02-04T01:27:30;41.87;;;21.87;;
21601;SDS011;10963;50.934;4.668;2023-02-04T01:29:56;46.47;;;23.77;;
21601;SDS011;10963;50.934;4.668;2023-02-04T01:32:24;43.17;;;23.27;;
21601;SDS011;10963;50.934;4.668;2023-02-04T01:34:50;45.10;;;24.27;;
21601;SDS011;10963;50.934;4.668;2023-02-04T01:37:18;42.37;;;23.27;;
21601;SDS011;10963;50.934;4.668;2023-02-04T01:39:44;46.27;;;23.30;;
21601;SDS011;10963;50.934;4.668;2023-02-04T01:42:12;68.87;;;26.47;;
21601;SDS011;10963;50.934;4.668;2023-02-04T01:44:40;50.57;;;22.70;;
21601;SDS011;10963;50.934;4.668;2023-02-04T01:47:06;44.30;;;21.40;;
21601;SDS011;10963;50.934;4.668;2023-02-04T01:49:33;44.27;;;20.20;;
21601;SDS011;10963;50.934;4.668;2023-02-04T01:52:02;47.13;;;19.27;;
21601;SDS011;10963;50.934;4.668;2023-02-04T01:54:30;38.10;;;17.67;;
21601;SDS011;10963;50.934;4.668;2023-02-04T01:56:56;38.90;;;16.83;;
21601;SDS011;10963;50.934;4.668;2023-02-04T01:59:24;45.47;;;17.10;;
21601;SDS011;10963;50.934;4.668;2023-02-04T02:01:55;45.43;;;18.03;;
21601;SDS011;10963;50.934;4.668;2023-02-04T02:06:55;39.37;;;17.53;;
21601;SDS011;10963;50.934;4.668;2023-02-04T02:09:29;38.73;;;15.43;;
21601;SDS011;10963;50.934;4.668;2023-02-04T02:11:57;35.13;;;15.50;;
21601;SDS011;10963;50.934;4.668;2023-02-04T02:14:25;36.07;;;15.80;;
21601;SDS011;10963;50.934;4.668;2023-02-04T02:16:51;33.43;;;15.17;;
21601;SDS011;10963;50.934;4.668;2023-02-04T02:19:19;31.03;;;15.43;;
21601;SDS011;10963;50.934;4.668;2023-02-04T02:21:54;34.47;;;13.73;;
21601;SDS011;10963;50.934;4.668;2023-02-04T02:24:31;32.57;;;14.30;;
21601;SDS011;10963;50.934;4.668;2023-02-04T02:27:02;30.90;;;12.93;;
21601;SDS011;10963;50.934;4.668;2023-02-04T02:29:35;30.77;;;11.97;;
21601;SDS011;10963;50.934;4.668;2023-02-04T02:32:05;30.33;;;12.33;;
21601;SDS011;10963;50.934;4.668;2023-02-04T02:34:34;26.07;;;11.53;;
21601;SDS011;10963;50.934;4.668;2023-02-04T02:37:01;24.90;;;11.33;;
21601;SDS011;10963;50.934;4.668;2023-02-04T02:39:28;27.00;;;10.80;;
21601;SDS011;10963;50.934;4.668;2023-02-04T02:41:54;26.60;;;11.03;;
21601;SDS011;10963;50.934;4.668;2023-02-04T02:44:23;28.27;;;10.97;;
21601;SDS011;10963;50.934;4.668;2023-02-04T02:46:53;27.90;;;10.67;;
21601;SDS011;10963;50.934;4.668;2023-02-04T02:49:19;29.33;;;11.60;;
21601;SDS011;10963;50.934;4.668;2023-02-04T02:51:45;27.43;;;11.77;;
21601;SDS011;10963;50.934;4.668;2023-02-04T02:54:17;30.30;;;11.33;;
21601;SDS011;10963;50.934;4.668;2023-02-04T02:56:44;33.70;;;16.97;;
21601;SDS011;10963;50.934;4.668;2023-02-04T02:59:13;45.87;;;23.17;;
21601;SDS011;10963;50.934;4.668;2023-02-04T03:01:44;38.47;;;17.77;;
21601;SDS011;10963;50.934;4.668;2023-02-04T03:04:12;35.03;;;14.87;;
21601;SDS011;10963;50.934;4.668;2023-02-04T03:06:38;39.33;;;17.33;;
21601;SDS011;10963;50.934;4.668;2023-02-04T03:09:09;34.50;;;14.53;;
21601;SDS011;10963;50.934;4.668;2023-02-04T03:11:36;25.10;;;12.47;;
21601;SDS011;10963;50.934;4.668;2023-02-04T03:14:06;28.03;;;10.07;;
21601;SDS011;10963;50.934;4.668;2023-02-04T03:16:32;29.83;;;10.07;;
21601;SDS011;10963;50.934;4.668;2023-02-04T03:19:04;19.37;;;9.70;;
21601;SDS011;10963;50.934;4.668;2023-02-04T03:21:31;23.87;;;10.23;;
21601;SDS011;10963;50.934;4.668;2023-02-04T03:24:00;24.43;;;10.00;;
21601;SDS011;10963;50.934;4.668;2023-02-04T03:26:28;24.80;;;9.70;;
21601;SDS011;10963;50.934;4.668;2023-02-04T03:28:59;22.23;;;9.90;;
21601;SDS011;10963;50.934;4.668;2023-02-04T03:31:30;23.70;;;9.53;;
21601;SDS011;10963;50.934;4.668;2023-02-04T03:33:58;21.93;;;9.17;;
21601;SDS011;10963;50.934;4.668;2023-02-04T03:36:23;23.77;;;9.80;;
21601;SDS011;10963;50.934;4.668;2023-02-04T03:38:49;18.27;;;9.43;;
21601;SDS011;10963;50.934;4.668;2023-02-04T03:41:18;27.93;;;9.97;;
21601;SDS011;10963;50.934;4.668;2023-02-04T03:43:44;23.87;;;8.60;;
21601;SDS011;10963;50.934;4.668;2023-02-04T03:46:09;24.03;;;9.73;;
21601;SDS011;10963;50.934;4.668;2023-02-04T03:48:35;29.80;;;10.00;;
21601;SDS011;10963;50.934;4.668;2023-02-04T03:51:01;20.57;;;10.00;;
21601;SDS011;10963;50.934;4.668;2023-02-04T03:53:29;20.40;;;10.17;;
21601;SDS011;10963;50.934;4.668;2023-02-04T03:55:57;33.47;;;10.07;;
21601;SDS011;10963;50.934;4.668;2023-02-04T03:58:23;27.63;;;10.37;;
21601;SDS011;10963;50.934;4.668;2023-02-04T04:00:49;22.47;;;10.27;;
21601;SDS011;10963;50.934;4.668;2023-02-04T04:03:14;26.17;;;10.80;;
21601;SDS011;10963;50.934;4.668;2023-02-04T04:05:41;25.33;;;10.43;;
21601;SDS011;10963;50.934;4.668;2023-02-04T04:08:06;28.27;;;11.50;;
21601;SDS011;10963;50.934;4.668;2023-02-04T04:10:32;24.00;;;10.53;;
21601;SDS011;10963;50.934;4.668;2023-02-04T04:13:00;21.60;;;10.17;;
21601;SDS011;10963;50.934;4.668;2023-02-04T04:15:26;21.07;;;9.90;;
21601;SDS011;10963;50.934;4.668;2023-02-04T04:17:52;27.93;;;11.30;;
21601;SDS011;10963;50.934;4.668;2023-02-04T04:20:17;29.50;;;11.47;;
21601;SDS011;10963;50.934;4.668;2023-02-04T04:22:43;23.13;;;10.47;;
21601;SDS011;10963;50.934;4.668;2023-02-04T04:25:10;26.30;;;10.03;;
21601;SDS011;10963;50.934;4.668;2023-02-04T04:27:38;25.43;;;10.27;;
21601;SDS011;10963;50.934;4.668;2023-02-04T04:30:04;29.17;;;10.73;;
21601;SDS011;10963;50.934;4.668;2023-02-04T04:32:30;29.23;;;10.30;;
21601;SDS011;10963;50.934;4.668;2023-02-04T04:34:55;24.97;;;10.30;;
21601;SDS011;10963;50.934;4.668;2023-02-04T04:37:23;25.73;;;9.80;;
21601;SDS011;10963;50.934;4.668;2023-02-04T04:39:51;27.63;;;9.93;;
21601;SDS011;10963;50.934;4.668;2023-02-04T04:42:17;30.27;;;10.13;;
21601;SDS011;10963;50.934;4.668;2023-02-04T04:44:45;24.57;;;10.03;;
21601;SDS011;10963;50.934;4.668;2023-02-04T04:47:11;31.20;;;11.67;;
21601;SDS011;10963;50.934;4.668;2023-02-04T04:49:36;28.97;;;11.83;;
21601;SDS011;10963;50.934;4.668;2023-02-04T04:52:09;36.30;;;13.13;;
21601;SDS011;10963;50.934;4.668;2023-02-04T04:54:35;42.53;;;13.10;;
21601;SDS011;10963;50.934;4.668;2023-02-04T04:57:00;32.50;;;12.57;;
21601;SDS011;10963;50.934;4.668;2023-02-04T04:59:28;40.60;;;13.37;;
21601;SDS011;10963;50.934;4.668;2023-02-04T05:01:54;38.17;;;12.57;;
21601;SDS011;10963;50.934;4.668;2023-02-04T05:04:20;37.13;;;12.77;;
21601;SDS011;10963;50.934;4.668;2023-02-04T05:06:48;31.63;;;11.87;;
21601;SDS011;10963;50.934;4.668;2023-02-04T05:09:13;33.63;;;11.67;;
21601;SDS011;10963;50.934;4.668;2023-02-04T05:11:42;32.10;;;11.50;;
21601;SDS011;10963;50.934;4.668;2023-02-04T05:14:07;33.67;;;11.70;;
21601;SDS011;10963;50.934;4.668;2023-02-04T05:16:35;33.43;;;11.63;;
21601;SDS011;10963;50.934;4.668;2023-02-04T05:19:01;30.50;;;11.30;;
21601;SDS011;10963;50.934;4.668;2023-02-04T05:21:29;32.80;;;11.97;;
21601;SDS011;10963;50.934;4.668;2023-02-04T05:23:54;31.60;;;12.20;;
21601;SDS011;10963;50.934;4.668;2023-02-04T05:26:23;32.63;;;12.57;;
21601;SDS011;10963;50.934;4.668;2023-02-04T05:28:48;39.10;;;12.37;;
21601;SDS011;10963;50.934;4.668;2023-02-04T05:31:14;31.60;;;12.33;;
21601;SDS011;10963;50.934;4.668;2023-02-04T05:33:42;41.17;;;12.43;;
21601;SDS011;10963;50.934;4.668;2023-02-04T05:36:10;32.30;;;12.63;;
21601;SDS011;10963;50.934;4.668;2023-02-04T05:38:36;33.70;;;12.20;;
21601;SDS011;10963;50.934;4.668;2023-02-04T05:41:01;31.43;;;12.30;;
21601;SDS011;10963;50.934;4.668;2023-02-04T05:43:27;38.77;;;13.00;;
21601;SDS011;10963;50.934;4.668;2023-02-04T05:45:53;36.07;;;12.63;;
21601;SDS011;10963;50.934;4.668;2023-02-04T05:48:24;37.53;;;12.87;;
21601;SDS011;10963;50.934;4.668;2023-02-04T05:50:52;32.23;;;12.00;;
21601;SDS011;10963;50.934;4.668;2023-02-04T05:53:20;36.73;;;12.00;;
21601;SDS011;10963;50.934;4.668;2023-02-04T05:55:48;36.13;;;12.50;;
21601;SDS011;10963;50.934;4.668;2023-02-04T05:58:14;35.07;;;12.00;;
21601;SDS011;10963;50.934;4.668;2023-02-04T06:00:42;34.77;;;12.37;;
21601;SDS011;10963;50.934;4.668;2023-02-04T06:03:07;36.47;;;12.70;;
21601;SDS011;10963;50.934;4.668;2023-02-04T06:05:38;35.77;;;12.17;;
21601;SDS011;10963;50.934;4.668;2023-02-04T06:08:04;30.90;;;12.43;;
21601;SDS011;10963;50.934;4.668;2023-02-04T06:10:37;43.80;;;12.10;;
21601;SDS011;10963;50.934;4.668;2023-02-04T06:13:05;33.60;;;11.53;;
21601;SDS011;10963;50.934;4.668;2023-02-04T06:15:33;33.03;;;11.73;;
21601;SDS011;10963;50.934;4.668;2023-02-04T06:17:59;30.83;;;11.93;;
21601;SDS011;10963;50.934;4.668;2023-02-04T06:20:25;31.73;;;11.83;;
21601;SDS011;10963;50.934;4.668;2023-02-04T06:22:51;32.40;;;11.67;;
21601;SDS011;10963;50.934;4.668;2023-02-04T06:25:20;33.03;;;13.00;;
21601;SDS011;10963;50.934;4.668;2023-02-04T06:27:49;33.33;;;13.07;;
21601;SDS011;10963;50.934;4.668;2023-02-04T06:30:17;31.20;;;11.10;;
21601;SDS011;10963;50.934;4.668;2023-02-04T06:32:43;32.53;;;13.20;;
21601;SDS011;10963;50.934;4.668;2023-02-04T06:35:09;32.30;;;11.97;;
21601;SDS011;10963;50.934;4.668;2023-02-04T06:37:37;35.93;;;12.00;;
21601;SDS011;10963;50.934;4.668;2023-02-04T06:40:03;29.50;;;12.13;;
21601;SDS011;10963;50.934;4.668;2023-02-04T06:42:29;35.97;;;12.10;;
21601;SDS011;10963;50.934;4.668;2023-02-04T06:44:55;35.20;;;13.13;;
21601;SDS011;10963;50.934;4.668;2023-02-04T06:47:21;41.30;;;14.87;;
21601;SDS011;10963;50.934;4.668;2023-02-04T06:49:46;37.70;;;13.43;;
21601;SDS011;10963;50.934;4.668;2023-02-04T06:52:12;31.73;;;12.63;;
21601;SDS011;10963;50.934;4.668;2023-02-04T06:54:40;31.57;;;11.80;;
21601;SDS011;10963;50.934;4.668;2023-02-04T06:57:06;37.57;;;15.17;;
21601;SDS011;10963;50.934;4.668;2023-02-04T06:59:36;37.97;;;12.53;;
21601;SDS011;10963;50.934;4.668;2023-02-04T07:02:03;33.37;;;12.67;;
21601;SDS011;10963;50.934;4.668;2023-02-04T07:04:30;31.87;;;13.00;;
21601;SDS011;10963;50.934;4.668;2023-02-04T07:06:58;74.87;;;33.57;;
21601;SDS011;10963;50.934;4.668;2023-02-04T07:09:24;44.43;;;18.30;;
21601;SDS011;10963;50.934;4.668;2023-02-04T07:11:52;51.40;;;18.67;;
21601;SDS011;10963;50.934;4.668;2023-02-04T07:14:18;39.83;;;18.17;;
21601;SDS011;10963;50.934;4.668;2023-02-04T07:16:44;42.73;;;19.50;;
21601;SDS011;10963;50.934;4.668;2023-02-04T07:19:10;49.93;;;16.67;;
21601;SDS011;10963;50.934;4.668;2023-02-04T07:21:38;58.30;;;25.43;;
21601;SDS011;10963;50.934;4.668;2023-02-04T07:24:08;60.57;;;26.17;;
21601;SDS011;10963;50.934;4.668;2023-02-04T07:26:34;50.93;;;24.03;;
21601;SDS011;10963;50.934;4.668;2023-02-04T07:29:01;42.97;;;18.43;;
21601;SDS011;10963;50.934;4.668;2023-02-04T07:31:27;50.37;;;17.63;;
21601;SDS011;10963;50.934;4.668;2023-02-04T07:33:53;49.83;;;17.27;;
21601;SDS011;10963;50.934;4.668;2023-02-04T07:36:18;50.07;;;17.00;;
21601;SDS011;10963;50.934;4.668;2023-02-04T07:38:46;62.50;;;21.07;;
21601;SDS011;10963;50.934;4.668;2023-02-04T07:41:14;60.90;;;19.40;;
21601;SDS011;10963;50.934;4.668;2023-02-04T07:43:44;54.77;;;18.47;;
21601;SDS011;10963;50.934;4.668;2023-02-04T07:46:09;64.77;;;19.93;;
21601;SDS011;10963;50.934;4.668;2023-02-04T07:48:37;62.27;;;18.87;;
21601;SDS011;10963;50.934;4.668;2023-02-04T07:51:08;74.27;;;19.13;;
21601;SDS011;10963;50.934;4.668;2023-02-04T07:53:36;65.47;;;19.83;;
21601;SDS011;10963;50.934;4.668;2023-02-04T07:56:07;64.20;;;19.23;;
21601;SDS011;10963;50.934;4.668;2023-02-04T07:58:35;57.87;;;17.70;;
21601;SDS011;10963;50.934;4.668;2023-02-04T08:01:01;65.50;;;21.90;;
21601;SDS011;10963;50.934;4.668;2023-02-04T08:03:26;76.90;;;42.80;;
21601;SDS011;10963;50.934;4.668;2023-02-04T08:05:52;61.17;;;24.80;;
21601;SDS011;10963;50.934;4.668;2023-02-04T08:08:18;60.00;;;22.17;;
21601;SDS011;10963;50.934;4.668;2023-02-04T08:10:44;59.50;;;20.00;;
21601;SDS011;10963;50.934;4.668;2023-02-04T08:13:10;60.77;;;20.90;;
21601;SDS011;10963;50.934;4.668;2023-02-04T08:15:36;61.37;;;18.60;;
21601;SDS011;10963;50.934;4.668;2023-02-04T08:18:02;62.70;;;17.70;;
21601;SDS011;10963;50.934;4.668;2023-02-04T08:20:33;51.93;;;19.00;;
21601;SDS011;10963;50.934;4.668;2023-02-04T08:22:58;60.97;;;20.17;;
21601;SDS011;10963;50.934;4.668;2023-02-04T08:25:24;54.97;;;18.67;;
21601;SDS011;10963;50.934;4.668;2023-02-04T08:27:55;55.10;;;17.30;;
21601;SDS011;10963;50.934;4.668;2023-02-04T08:30:20;42.07;;;16.13;;
21601;SDS011;10963;50.934;4.668;2023-02-04T08:32:46;62.53;;;19.80;;
21601;SDS011;10963;50.934;4.668;2023-02-04T08:35:12;49.87;;;17.87;;
21601;SDS011;10963;50.934;4.668;2023-02-04T08:37:40;53.27;;;18.57;;
21601;SDS011;10963;50.934;4.668;2023-02-04T08:40:06;59.97;;;18.73;;
21601;SDS011;10963;50.934;4.668;2023-02-04T08:42:32;52.53;;;17.20;;
21601;SDS011;10963;50.934;4.668;2023-02-04T08:44:58;54.47;;;18.87;;
21601;SDS011;10963;50.934;4.668;2023-02-04T08:47:30;57.20;;;18.40;;
21601;SDS011;10963;50.934;4.668;2023-02-04T08:49:55;55.40;;;18.60;;
21601;SDS011;10963;50.934;4.668;2023-02-04T08:52:24;54.57;;;17.67;;
21601;SDS011;10963;50.934;4.668;2023-02-04T08:54:52;71.93;;;20.63;;
21601;SDS011;10963;50.934;4.668;2023-02-04T08:57:18;63.67;;;20.10;;
21601;SDS011;10963;50.934;4.668;2023-02-04T08:59:45;59.67;;;19.03;;
21601;SDS011;10963;50.934;4.668;2023-02-04T09:02:14;53.53;;;18.27;;
21601;SDS011;10963;50.934;4.668;2023-02-04T09:04:44;45.53;;;17.40;;
21601;SDS011;10963;50.934;4.668;2023-02-04T09:07:10;48.07;;;17.93;;
21601;SDS011;10963;50.934;4.668;2023-02-04T09:09:38;45.70;;;15.77;;
21601;SDS011;10963;50.934;4.668;2023-02-04T09:12:03;50.23;;;17.10;;
21601;SDS011;10963;50.934;4.668;2023-02-04T09:14:31;51.30;;;18.20;;
21601;SDS011;10963;50.934;4.668;2023-02-04T09:16:59;55.03;;;17.90;;
21601;SDS011;10963;50.934;4.668;2023-02-04T09:19:28;54.83;;;17.87;;
21601;SDS011;10963;50.934;4.668;2023-02-04T09:21:53;45.77;;;17.13;;
21601;SDS011;10963;50.934;4.668;2023-02-04T09:24:22;51.60;;;16.97;;
21601;SDS011;10963;50.934;4.668;2023-02-04T09:26:52;47.63;;;17.33;;
21601;SDS011;10963;50.934;4.668;2023-02-04T09:29:20;47.77;;;18.70;;
21601;SDS011;10963;50.934;4.668;2023-02-04T09:31:46;47.60;;;16.93;;
21601;SDS011;10963;50.934;4.668;2023-02-04T09:34:11;58.77;;;23.20;;
21601;SDS011;10963;50.934;4.668;2023-02-04T09:36:39;54.93;;;20.70;;
21601;SDS011;10963;50.934;4.668;2023-02-04T09:39:05;62.07;;;24.97;;
21601;SDS011;10963;50.934;4.668;2023-02-04T09:41:34;72.20;;;38.17;;
21601;SDS011;10963;50.934;4.668;2023-02-04T09:44:03;48.63;;;19.90;;
21601;SDS011;10963;50.934;4.668;2023-02-04T09:46:29;48.27;;;17.07;;
21601;SDS011;10963;50.934;4.668;2023-02-04T09:48:57;49.40;;;18.87;;
21601;SDS011;10963;50.934;4.668;2023-02-04T09:51:27;53.30;;;19.20;;
21601;SDS011;10963;50.934;4.668;2023-02-04T09:54:01;44.30;;;17.17;;
21601;SDS011;10963;50.934;4.668;2023-02-04T09:56:35;42.07;;;18.27;;
21601;SDS011;10963;50.934;4.668;2023-02-04T09:59:13;40.00;;;14.83;;
21601;SDS011;10963;50.934;4.668;2023-02-04T10:01:43;39.53;;;14.53;;
21601;SDS011;10963;50.934;4.668;2023-02-04T10:04:09;44.83;;;15.90;;
21601;SDS011;10963;50.934;4.668;2023-02-04T10:06:40;38.33;;;14.67;;
21601;SDS011;10963;50.934;4.668;2023-02-04T10:09:09;37.33;;;14.00;;
21601;SDS011;10963;50.934;4.668;2023-02-04T10:11:39;42.23;;;14.57;;
21601;SDS011;10963;50.934;4.668;2023-02-04T10:14:07;37.80;;;14.73;;
21601;SDS011;10963;50.934;4.668;2023-02-04T10:16:39;36.57;;;13.90;;
21601;SDS011;10963;50.934;4.668;2023-02-04T10:19:16;35.47;;;12.03;;
21601;SDS011;10963;50.934;4.668;2023-02-04T10:21:45;36.10;;;10.33;;
21601;SDS011;10963;50.934;4.668;2023-02-04T10:26:45;28.80;;;12.20;;
21601;SDS011;10963;50.934;4.668;2023-02-04T10:29:12;33.43;;;10.43;;
21601;SDS011;10963;50.934;4.668;2023-02-04T10:31:43;28.10;;;10.57;;
21601;SDS011;10963;50.934;4.668;2023-02-04T10:34:15;25.60;;;11.23;;
21601;SDS011;10963;50.934;4.668;2023-02-04T10:36:42;25.63;;;10.33;;
21601;SDS011;10963;50.934;4.668;2023-02-04T10:39:19;23.40;;;9.97;;
21601;SDS011;10963;50.934;4.668;2023-02-04T10:44:16;23.50;;;9.33;;
21601;SDS011;10963;50.934;4.668;2023-02-04T10:46:46;22.00;;;9.73;;
21601;SDS011;10963;50.934;4.668;2023-02-04T10:49:21;24.37;;;9.73;;
21601;SDS011;10963;50.934;4.668;2023-02-04T10:51:50;26.57;;;9.60;;
21601;SDS011;10963;50.934;4.668;2023-02-04T10:54:20;20.23;;;9.07;;
21601;SDS011;10963;50.934;4.668;2023-02-04T10:57:16;29.53;;;11.60;;
21601;SDS011;10963;50.934;4.668;2023-02-04T10:59:50;24.47;;;9.90;;
21601;SDS011;10963;50.934;4.668;2023-02-04T11:05:02;22.13;;;8.77;;
21601;SDS011;10963;50.934;4.668;2023-02-04T11:07:29;24.73;;;7.63;;
21601;SDS011;10963;50.934;4.668;2023-02-04T11:09:57;20.07;;;8.63;;
21601;SDS011;10963;50.934;4.668;2023-02-04T11:12:41;19.67;;;7.57;;
21601;SDS011;10963;50.934;4.668;2023-02-04T11:18:06;19.20;;;8.63;;
21601;SDS011;10963;50.934;4.668;2023-02-04T11:20:34;17.03;;;8.27;;
21601;SDS011;10963;50.934;4.668;2023-02-04T11:26:00;23.17;;;9.97;;
21601;SDS011;10963;50.934;4.668;2023-02-04T11:28:37;19.37;;;8.80;;
21601;SDS011;10963;50.934;4.668;2023-02-04T11:33:46;15.97;;;7.83;;
21601;SDS011;10963;50.934;4.668;2023-02-04T11:36:14;10.93;;;7.13;;
21601;SDS011;10963;50.934;4.668;2023-02-04T11:38:45;13.23;;;6.40;;
21601;SDS011;10963;50.934;4.668;2023-02-04T11:41:25;15.83;;;7.77;;
21601;SDS011;10963;50.934;4.668;2023-02-04T11:43:54;9.57;;;5.97;;
21601;SDS011;10963;50.934;4.668;2023-02-04T11:46:22;11.53;;;6.73;;
21601;SDS011;10963;50.934;4.668;2023-02-04T11:48:53;10.57;;;5.27;;
21601;SDS011;10963;50.934;4.668;2023-02-04T11:51:30;9.60;;;5.47;;
21601;SDS011;10963;50.934;4.668;2023-02-04T11:53:58;9.60;;;5.00;;
21601;SDS011;10963;50.934;4.668;2023-02-04T11:56:26;6.60;;;4.10;;
21601;SDS011;10963;50.934;4.668;2023-02-04T11:58:54;8.03;;;4.00;;
21601;SDS011;10963;50.934;4.668;2023-02-04T12:01:22;5.77;;;4.10;;
21601;SDS011;10963;50.934;4.668;2023-02-04T12:04:00;9.07;;;4.63;;
21601;SDS011;10963;50.934;4.668;2023-02-04T12:06:31;7.77;;;4.13;;
21601;SDS011;10963;50.934;4.668;2023-02-04T12:11:51;6.90;;;4.83;;
21601;SDS011;10963;50.934;4.668;2023-02-04T12:14:17;5.30;;;3.90;;
21601;SDS011;10963;50.934;4.668;2023-02-04T12:16:47;5.03;;;4.23;;
21601;SDS011;10963;50.934;4.668;2023-02-04T12:19:15;7.33;;;4.60;;
21601;SDS011;10963;50.934;4.668;2023-02-04T12:21:46;5.57;;;4.57;;
21601;SDS011;10963;50.934;4.668;2023-02-04T12:24:12;4.50;;;3.60;;
21601;SDS011;10963;50.934;4.668;2023-02-04T12:26:40;5.20;;;3.33;;
21601;SDS011;10963;50.934;4.668;2023-02-04T12:29:06;6.33;;;3.40;;
21601;SDS011;10963;50.934;4.668;2023-02-04T12:31:33;5.13;;;3.33;;
21601;SDS011;10963;50.934;4.668;2023-02-04T12:33:59;5.03;;;3.60;;
21601;SDS011;10963;50.934;4.668;2023-02-04T12:36:29;3.93;;;3.00;;
21601;SDS011;10963;50.934;4.668;2023-02-04T12:38:55;3.40;;;3.10;;
21601;SDS011;10963;50.934;4.668;2023-02-04T12:41:23;4.63;;;3.10;;
21601;SDS011;10963;50.934;4.668;2023-02-04T12:43:52;3.20;;;2.90;;
21601;SDS011;10963;50.934;4.668;2023-02-04T12:46:19;3.53;;;3.00;;
21601;SDS011;10963;50.934;4.668;2023-02-04T12:48:47;5.27;;;3.00;;
21601;SDS011;10963;50.934;4.668;2023-02-04T12:51:15;4.53;;;3.50;;
21601;SDS011;10963;50.934;4.668;2023-02-04T12:53:41;4.60;;;3.40;;
21601;SDS011;10963;50.934;4.668;2023-02-04T12:56:07;4.63;;;3.37;;
21601;SDS011;10963;50.934;4.668;2023-02-04T12:58:32;5.83;;;4.50;;
21601;SDS011;10963;50.934;4.668;2023-02-04T13:00:58;6.97;;;4.50;;
21601;SDS011;10963;50.934;4.668;2023-02-04T13:03:26;8.60;;;5.27;;
21601;SDS011;10963;50.934;4.668;2023-02-04T13:05:54;8.20;;;5.33;;
21601;SDS011;10963;50.934;4.668;2023-02-04T13:08:22;7.10;;;5.50;;
21601;SDS011;10963;50.934;4.668;2023-02-04T13:10:48;8.97;;;5.73;;
21601;SDS011;10963;50.934;4.668;2023-02-04T13:13:19;8.33;;;5.27;;
21601;SDS011;10963;50.934;4.668;2023-02-04T13:15:45;7.50;;;6.03;;
21601;SDS011;10963;50.934;4.668;2023-02-04T13:18:13;9.90;;;6.63;;
21601;SDS011;10963;50.934;4.668;2023-02-04T13:20:39;9.57;;;6.50;;
21601;SDS011;10963;50.934;4.668;2023-02-04T13:23:09;10.80;;;7.10;;
21601;SDS011;10963;50.934;4.668;2023-02-04T13:25:35;11.27;;;7.53;;
21601;SDS011;10963;50.934;4.668;2023-02-04T13:28:03;10.97;;;7.43;;
21601;SDS011;10963;50.934;4.668;2023-02-04T13:30:29;14.43;;;8.20;;
21601;SDS011;10963;50.934;4.668;2023-02-04T13:32:57;13.10;;;8.70;;
21601;SDS011;10963;50.934;4.668;2023-02-04T13:35:26;15.13;;;8.37;;
21601;SDS011;10963;50.934;4.668;2023-02-04T13:37:51;13.20;;;8.00;;
21601;SDS011;10963;50.934;4.668;2023-02-04T13:40:17;15.13;;;8.90;;
21601;SDS011;10963;50.934;4.668;2023-02-04T13:42:43;13.47;;;8.53;;
21601;SDS011;10963;50.934;4.668;2023-02-04T13:45:11;16.90;;;9.37;;
21601;SDS011;10963;50.934;4.668;2023-02-04T13:47:36;14.63;;;9.20;;
21601;SDS011;10963;50.934;4.668;2023-02-04T13:50:03;18.70;;;9.37;;
21601;SDS011;10963;50.934;4.668;2023-02-04T13:52:32;17.40;;;10.27;;
21601;SDS011;10963;50.934;4.668;2023-02-04T13:55:00;16.27;;;9.53;;
21601;SDS011;10963;50.934;4.668;2023-02-04T13:57:25;18.97;;;10.20;;
21601;SDS011;10963;50.934;4.668;2023-02-04T13:59:57;16.80;;;10.17;;
21601;SDS011;10963;50.934;4.668;2023-02-04T14:02:22;19.37;;;9.27;;
21601;SDS011;10963;50.934;4.668;2023-02-04T14:04:49;16.00;;;9.50;;
21601;SDS011;10963;50.934;4.668;2023-02-04T14:07:17;19.33;;;9.60;;
21601;SDS011;10963;50.934;4.668;2023-02-04T14:09:45;17.27;;;9.40;;
21601;SDS011;10963;50.934;4.668;2023-02-04T14:12:12;22.03;;;9.43;;
21601;SDS011;10963;50.934;4.668;2023-02-04T14:14:38;17.57;;;9.80;;
21601;SDS011;10963;50.934;4.668;2023-02-04T14:17:06;16.47;;;9.70;;
21601;SDS011;10963;50.934;4.668;2023-02-04T14:19:34;17.20;;;9.77;;
21601;SDS011;10963;50.934;4.668;2023-02-04T14:22:04;14.73;;;8.60;;
21601;SDS011;10963;50.934;4.668;2023-02-04T14:24:30;15.10;;;9.40;;
21601;SDS011;10963;50.934;4.668;2023-02-04T14:26:56;17.97;;;9.97;;
21601;SDS011;10963;50.934;4.668;2023-02-04T14:29:22;17.63;;;9.60;;
21601;SDS011;10963;50.934;4.668;2023-02-04T14:31:47;19.47;;;8.90;;
21601;SDS011;10963;50.934;4.668;2023-02-04T14:34:13;19.10;;;10.47;;
21601;SDS011;10963;50.934;4.668;2023-02-04T14:36:41;16.07;;;10.20;;
21601;SDS011;10963;50.934;4.668;2023-02-04T14:39:09;17.10;;;9.43;;
21601;SDS011;10963;50.934;4.668;2023-02-04T14:41:34;21.00;;;10.53;;
21601;SDS011;10963;50.934;4.668;2023-02-04T14:44:02;20.07;;;9.90;;
21601;SDS011;10963;50.934;4.668;2023-02-04T14:46:28;17.50;;;9.53;;
21601;SDS011;10963;50.934;4.668;2023-02-04T14:48:54;23.67;;;10.03;;
21601;SDS011;10963;50.934;4.668;2023-02-04T14:51:19;21.83;;;10.47;;